Time;durP1;ratioP1;P1;durP2;ratioP2;P2;SDS_P1;SDS_P2;PMS_P1;PMS_P2;Temp;Humidity;BMP_temperature;BMP_pressure;BME280_temperature;BME280_humidity;BME280_pressure;Samples;Min_cycle;Max_cycle;Signal;HPM_P1;HPM_P2
2022/07/13 00:01:49;;;;;;;;;;;;;;;17.25;49.14;99663.75;4959899;28;20389;-93
2022/07/13 00:04:15;;;;;;;;;;;;;;;17.17;49.03;99663.34;4959460;28;19910;-93
2022/07/13 00:06:41;;;;;;;;;;;;;;;16.97;49.38;99661.06;4975006;28;20351;-93
2022/07/13 00:09:06;;;;;;;;;;;;;;;16.93;49.62;99663.59;4958798;28;20396;-93
2022/07/13 00:11:32;;;;;;;;;;;;;;;17.06;48.66;99664.69;4959277;28;19989;-93
2022/07/13 00:13:58;;;;;;;;;;;;;;;17.19;48.21;99657.63;4958547;28;19917;-93
2022/07/13 00:16:23;;;;;;;;;;;;;;;17.23;47.83;99663.25;4974267;28;20383;-93
2022/07/13 00:18:48;;;;;;;;;;;;;;;17.34;46.78;99651.03;4958523;28;19914;-93
2022/07/13 00:21:14;;;;;;;;;;;;;;;17.42;46.22;99646.78;4957863;28;19914;-93
2022/07/13 00:23:39;;;;;;;;;;;;;;;17.48;46.18;99654.50;4975952;28;19910;-94
2022/07/13 00:26:05;;;;;;;;;;;;;;;17.50;45.60;99649.56;4959500;28;19910;-94
2022/07/13 00:28:30;;;;;;;;;;;;;;;17.54;45.75;99653.28;4958366;28;19921;-92
2022/07/13 00:30:56;;;;;;;;;;;;;;;17.41;47.27;99645.97;4958554;28;19965;-93
2022/07/13 00:33:21;;;;;;;;;;;;;;;17.37;47.43;99651.22;4974635;28;19914;-94
2022/07/13 00:35:47;;;;;;;;;;;;;;;17.33;47.46;99643.97;4958378;28;19998;-94
2022/07/13 00:38:13;;;;;;;;;;;;;;;17.25;48.43;99661.03;4973970;28;19915;-93
2022/07/13 00:40:38;;;;;;;;;;;;;;;17.27;48.37;99665.06;4973966;28;19914;-94
2022/07/13 00:43:04;;;;;;;;;;;;;;;17.16;49.54;99658.22;4957812;28;19964;-93
2022/07/13 00:45:29;;;;;;;;;;;;;;;17.14;49.10;99660.44;4958156;28;20352;-93
2022/07/13 00:47:55;;;;;;;;;;;;;;;17.20;48.75;99667.38;4958754;28;19910;-93
2022/07/13 00:50:21;;;;;;;;;;;;;;;17.05;49.22;99667.72;4974459;28;19918;-93
2022/07/13 00:52:46;;;;;;;;;;;;;;;16.98;49.51;99662.69;4957910;28;19917;-93
2022/07/13 00:55:12;;;;;;;;;;;;;;;17.07;49.47;99660.06;4957760;28;19916;-95
2022/07/13 00:57:38;;;;;;;;;;;;;;;17.01;49.04;99653.91;4958172;28;20363;-95
2022/07/13 01:00:05;;;;;;;;;;;;;;;17.01;49.20;99653.09;4957678;28;19922;-93
2022/07/13 01:02:30;;;;;;;;;;;;;;;17.08;49.03;99648.88;4974291;28;19914;-95
2022/07/13 01:04:56;;;;;;;;;;;;;;;17.10;48.62;99649.38;4957479;28;19910;-95
2022/07/13 01:07:22;;;;;;;;;;;;;;;17.16;48.22;99647.31;4973976;28;19917;-95
2022/07/13 01:09:47;;;;;;;;;;;;;;;17.19;48.22;99654.88;4957799;28;19937;-95
2022/07/13 01:12:12;;;;;;;;;;;;;;;17.16;48.28;99650.88;4958170;28;19914;-94
2022/07/13 01:14:38;;;;;;;;;;;;;;;17.26;47.27;99655.25;4957670;28;20455;-95
2022/07/13 01:17:03;;;;;;;;;;;;;;;17.29;46.82;99654.66;4958177;28;20292;-95
2022/07/13 01:19:29;;;;;;;;;;;;;;;17.17;49.06;99663.34;4958115;28;19910;-95
2022/07/13 01:21:55;;;;;;;;;;;;;;;17.01;50.48;99656.63;4973619;28;19910;-94
2022/07/13 01:24:23;;;;;;;;;;;;;;;16.89;50.68;99664.50;4957488;28;19950;-96
2022/07/13 01:26:49;;;;;;;;;;;;;;;16.78;51.24;99666.59;4957947;28;19910;-95
2022/07/13 01:29:14;;;;;;;;;;;;;;;16.86;50.30;99662.38;4960509;28;19920;-95
2022/07/13 01:31:39;;;;;;;;;;;;;;;16.90;50.10;99674.28;4960965;28;19910;-92
2022/07/13 01:34:05;;;;;;;;;;;;;;;16.99;50.20;99671.66;4960230;28;19910;-94
2022/07/13 01:36:30;;;;;;;;;;;;;;;16.99;50.01;99667.00;4960992;28;19914;-95
2022/07/13 01:38:56;;;;;;;;;;;;;;;17.06;48.53;99661.19;4961206;28;19925;-93
2022/07/13 01:41:23;;;;;;;;;;;;;;;17.05;47.47;99668.50;4961418;28;19910;-92
2022/07/13 01:43:48;;;;;;;;;;;;;;;17.17;46.45;99666.06;4961033;28;19949;-94
2022/07/13 01:46:14;;;;;;;;;;;;;;;17.27;45.89;99673.22;4960980;28;19910;-95
2022/07/13 01:48:40;;;;;;;;;;;;;;;17.27;45.36;99669.69;4960584;28;19910;-94
2022/07/13 01:51:05;;;;;;;;;;;;;;;17.31;45.28;99662.53;4976487;28;19956;-94
2022/07/13 01:53:31;;;;;;;;;;;;;;;17.32;44.97;99664.13;4960750;28;20367;-95
2022/07/13 01:55:56;;;;;;;;;;;;;;;17.34;45.32;99676.31;4960882;28;19946;-95
2022/07/13 01:58:23;;;;;;;;;;;;;;;17.26;48.31;99668.88;4960946;28;19988;-94
2022/07/13 02:00:49;;;;;;;;;;;;;;;17.00;49.16;99674.06;4976359;28;19925;-95
2022/07/13 02:03:15;;;;;;;;;;;;;;;16.84;49.78;99676.28;4960613;28;20295;-94
2022/07/13 02:05:42;;;;;;;;;;;;;;;16.69;50.33;99680.09;4961161;28;20014;-94
2022/07/13 02:08:07;;;;;;;;;;;;;;;16.62;50.37;99676.16;4959954;28;19997;-95
2022/07/13 02:10:36;;;;;;;;;;;;;;;16.67;50.03;99671.41;4960256;28;20012;-95
2022/07/13 02:13:04;;;;;;;;;;;;;;;16.68;50.05;99666.78;4960193;28;19914;-95
2022/07/13 02:15:30;;;;;;;;;;;;;;;16.70;49.95;99670.00;4960184;28;19932;-94
2022/07/13 02:17:55;;;;;;;;;;;;;;;16.74;49.26;99660.94;4960298;28;19910;-94
2022/07/13 02:20:20;;;;;;;;;;;;;;;16.80;48.78;99661.66;4960063;28;19921;-94
2022/07/13 02:22:46;;;;;;;;;;;;;;;16.85;47.71;99661.59;4960169;28;19910;-94
2022/07/13 02:25:14;;;;;;;;;;;;;;;16.87;47.45;99664.81;4959673;28;20368;-94
2022/07/13 02:27:43;;;;;;;;;;;;;;;16.92;46.73;99661.19;4959923;28;19910;-93
2022/07/13 02:30:08;;;;;;;;;;;;;;;17.04;46.28;99666.91;4959857;28;19914;-94
2022/07/13 02:32:37;;;;;;;;;;;;;;;17.09;46.13;99663.28;4960252;28;19910;-94
2022/07/13 02:35:03;;;;;;;;;;;;;;;17.16;45.61;99659.03;4960171;28;19910;-94
2022/07/13 02:37:28;;;;;;;;;;;;;;;17.15;46.08;99664.78;4959465;28;19910;-94
2022/07/13 02:39:56;;;;;;;;;;;;;;;17.14;45.82;99674.88;4959210;28;20013;-94
2022/07/13 02:42:21;;;;;;;;;;;;;;;17.06;49.84;99672.06;4959901;28;19913;-94
2022/07/13 02:44:47;;;;;;;;;;;;;;;16.84;50.41;99667.31;4959282;28;19933;-94
2022/07/13 02:47:12;;;;;;;;;;;;;;;16.66;50.55;99672.50;4959296;28;19933;-94
2022/07/13 02:49:37;;;;;;;;;;;;;;;16.49;50.77;99670.38;4959486;28;20423;-94
2022/07/13 02:52:03;;;;;;;;;;;;;;;16.31;50.66;99671.25;4959215;28;19909;-94
2022/07/13 02:54:28;;;;;;;;;;;;;;;16.23;50.50;99671.94;4959832;28;20364;-94
2022/07/13 02:56:55;;;;;;;;;;;;;;;16.24;50.48;99673.59;4959332;28;20001;-94
2022/07/13 02:59:20;;;;;;;;;;;;;;;16.20;50.33;99665.22;4959614;28;20005;-94
2022/07/13 03:01:46;;;;;;;;;;;;;;;16.25;50.41;99667.84;4960007;28;19976;-94
2022/07/13 03:04:11;;;;;;;;;;;;;;;16.20;50.08;99667.94;4959378;28;20352;-95
2022/07/13 03:06:36;;;;;;;;;;;;;;;16.21;49.96;99674.16;4960838;28;19917;-94
2022/07/13 03:09:02;;;;;;;;;;;;;;;16.16;50.43;99689.47;4960849;28;19914;-94
2022/07/13 03:11:27;;;;;;;;;;;;;;;16.25;50.30;99678.72;4959799;28;19914;-94
2022/07/13 03:13:53;;;;;;;;;;;;;;;16.29;49.80;99679.75;4961332;28;19913;-94
2022/07/13 03:16:18;;;;;;;;;;;;;;;16.25;50.29;99673.28;4959312;28;20360;-94
2022/07/13 03:18:43;;;;;;;;;;;;;;;16.27;49.98;99679.22;4958823;28;20022;-94
2022/07/13 03:21:09;;;;;;;;;;;;;;;16.28;50.57;99677.31;4959042;28;19910;-94
2022/07/13 03:23:35;;;;;;;;;;;;;;;16.25;51.48;99681.44;4958881;28;19910;-92
2022/07/13 03:26:00;;;;;;;;;;;;;;;16.25;51.68;99681.44;4958243;28;20415;-94
2022/07/13 03:28:25;;;;;;;;;;;;;;;16.21;52.76;99688.56;4958596;28;20399;-91
2022/07/13 03:30:51;;;;;;;;;;;;;;;16.35;51.46;99680.44;4958984;28;20376;-92
2022/07/13 03:33:16;;;;;;;;;;;;;;;16.36;51.02;99672.00;4958393;28;19910;-94
2022/07/13 03:35:42;;;;;;;;;;;;;;;16.39;51.14;99667.84;4958337;28;19964;-93
2022/07/13 03:38:07;;;;;;;;;;;;;;;16.49;50.49;99678.53;4958615;28;20446;-93
2022/07/13 03:40:33;;;;;;;;;;;;;;;16.42;50.22;99678.16;4958682;28;20417;-95
2022/07/13 03:42:58;;;;;;;;;;;;;;;16.43;49.61;99682.47;4959371;28;19910;-95
2022/07/13 03:45:23;;;;;;;;;;;;;;;16.57;49.65;99677.84;4959962;28;19910;-93
2022/07/13 03:47:49;;;;;;;;;;;;;;;16.62;49.71;99673.41;4961485;28;19961;-94
2022/07/13 03:50:17;;;;;;;;;;;;;;;16.63;49.61;99675.84;4958434;28;19914;-94
2022/07/13 03:52:42;;;;;;;;;;;;;;;16.68;49.70;99678.47;4959524;28;19933;-94
2022/07/13 03:55:08;;;;;;;;;;;;;;;16.69;50.22;99690.16;4959384;28;20353;-94
2022/07/13 03:57:33;;;;;;;;;;;;;;;16.62;51.53;99676.97;4958563;28;19948;-93
2022/07/13 03:59:59;;;;;;;;;;;;;;;16.53;52.50;99681.47;4957910;28;19918;-94
2022/07/13 04:02:25;;;;;;;;;;;;;;;16.28;54.39;99685.47;4958520;28;20025;-93
2022/07/13 04:04:50;;;;;;;;;;;;;;;16.21;55.08;99688.56;4975987;28;19909;-93
2022/07/13 04:07:15;;;;;;;;;;;;;;;16.25;55.26;99692.31;4977530;28;19909;-93
2022/07/13 04:09:41;;;;;;;;;;;;;;;16.01;55.73;99683.47;4958032;28;19917;-93
2022/07/13 04:12:21;;;;;;;;;;;;;;;15.98;55.71;99687.59;5065417;27;2103514;-95
2022/07/13 04:14:46;;;;;;;;;;;;;;;15.99;55.58;99685.69;5121190;27;19927;-95
2022/07/13 04:17:12;;;;;;;;;;;;;;;15.78;55.33;99691.44;5116079;27;19915;-96
2022/07/13 04:19:37;;;;;;;;;;;;;;;15.95;54.14;99697.13;5097774;28;19978;-95
2022/07/13 04:22:03;;;;;;;;;;;;;;;15.88;54.83;99683.13;5097443;28;20292;-94
2022/07/13 04:24:30;;;;;;;;;;;;;;;16.05;53.25;99690.72;5097718;28;20006;-96
2022/07/13 04:26:56;;;;;;;;;;;;;;;16.04;54.28;99691.03;5098726;28;20052;-96
2022/07/13 04:29:55;;;;;;;;;;;;;;;16.13;53.85;99692.78;5116848;28;19911;-96
2022/07/13 04:35:31;;;;;;;;;;;;;;;16.29;53.26;99695.22;5256400;22;19972;-96
2022/07/13 04:48:37;;;;;;;;;;;;;;;16.77;51.49;99701.13;5035354;28;19925;-96
2022/07/13 04:51:06;;;;;;;;;;;;;;;16.84;51.37;99691.81;5033467;28;19965;-94
2022/07/13 04:53:31;;;;;;;;;;;;;;;16.95;51.16;99702.19;5033178;28;19917;-95
2022/07/13 04:58:42;;;;;;;;;;;;;;;17.14;50.23;99699.34;5036932;28;19920;-96
2022/07/13 05:01:09;;;;;;;;;;;;;;;17.29;49.61;99702.88;5035959;28;19913;-96
2022/07/13 05:06:49;;;;;;;;;;;;;;;17.56;48.76;99705.50;4974308;28;19958;-96
2022/07/13 05:09:15;;;;;;;;;;;;;;;17.60;48.40;99711.16;4957076;28;19937;-95
2022/07/13 05:11:40;;;;;;;;;;;;;;;17.74;48.06;99711.09;4974555;28;19918;-95
2022/07/13 05:14:19;;;;;;;;;;;;;;;17.83;48.63;99711.22;4978915;28;20000;-96
2022/07/13 05:16:44;;;;;;;;;;;;;;;17.97;48.63;99701.03;4957603;28;19978;-95
2022/07/13 05:19:11;;;;;;;;;;;;;;;18.18;47.97;99706.81;4974131;28;19914;-95
2022/07/13 05:21:37;;;;;;;;;;;;;;;18.31;47.54;99703.22;4968645;28;19918;-92
2022/07/13 05:24:02;;;;;;;;;;;;;;;18.39;47.67;99707.09;4957692;29;19933;-93
2022/07/13 05:26:28;;;;;;;;;;;;;;;18.57;46.85;99706.09;4959199;28;19914;-92
2022/07/13 05:28:58;;;;;;;;;;;;;;;18.69;46.38;99697.28;4976393;28;19918;-92
2022/07/13 05:31:24;;;;;;;;;;;;;;;18.83;46.06;99694.50;4962748;28;19919;-92
2022/07/13 05:34:09;;;;;;;;;;;;;;;18.97;45.99;99691.66;4967806;28;19922;-95
2022/07/13 05:36:35;;;;;;;;;;;;;;;19.18;44.12;99697.34;4950006;28;19918;-95
2022/07/13 05:39:00;;;;;;;;;;;;;;;19.35;43.94;99702.81;4968218;28;20019;-95
2022/07/13 05:41:27;;;;;;;;;;;;;;;19.47;43.30;99699.47;4961354;29;19958;-95
2022/07/13 05:43:52;;;;;;;;;;;;;;;19.55;43.81;99706.88;4976950;28;19945;-94
2022/07/13 05:46:20;;;;;;;;;;;;;;;19.68;43.35;99707.03;4960222;29;19934;-95
2022/07/13 05:49:06;;;;;;;;;;;;;;;19.80;42.62;99704.50;4996439;28;19957;-95
2022/07/13 05:51:31;;;;;;;;;;;;;;;19.95;41.54;99700.47;5013838;28;19929;-94
2022/07/13 05:53:59;;;;;;;;;;;;;;;20.07;41.69;99700.63;4953837;28;19914;-93
2022/07/13 05:56:33;;;;;;;;;;;;;;;20.13;42.43;99704.78;4982738;28;19921;-96
2022/07/13 05:58:59;;;;;;;;;;;;;;;20.27;41.47;99701.84;4985444;28;19914;-94
2022/07/13 06:01:24;;;;;;;;;;;;;;;20.34;41.27;99695.91;4979478;28;20005;-92
2022/07/13 06:03:58;;;;;;;;;;;;;;;20.37;41.56;99693.28;4999963;28;19938;-96
2022/07/13 06:06:24;;;;;;;;;;;;;;;20.53;41.06;99701.00;4970303;28;19913;-91
2022/07/13 06:08:49;;;;;;;;;;;;;;;20.60;41.87;99701.31;4987458;28;19924;-95
2022/07/13 06:11:14;;;;;;;;;;;;;;;20.63;42.17;99695.19;5003583;28;19917;-95
2022/07/13 06:13:41;;;;;;;;;;;;;;;20.78;40.62;99688.38;5000690;28;19913;-94
2022/07/13 06:16:09;;;;;;;;;;;;;;;20.90;40.90;99684.94;5001642;28;19921;-94
2022/07/13 06:18:35;;;;;;;;;;;;;;;21.02;40.62;99682.25;5003161;28;19913;-94
2022/07/13 06:21:00;;;;;;;;;;;;;;;21.18;39.83;99679.75;5004150;28;20004;-94
2022/07/13 06:23:26;;;;;;;;;;;;;;;21.17;39.71;99684.44;5002616;28;19956;-95
2022/07/13 06:25:53;;;;;;;;;;;;;;;21.25;39.92;99677.31;5002015;28;19913;-95
2022/07/13 06:28:18;;;;;;;;;;;;;;;21.43;38.85;99675.28;5001687;28;19914;-94
2022/07/13 06:30:46;;;;;;;;;;;;;;;21.48;38.14;99668.78;5004411;28;20367;-94
2022/07/13 06:36:21;;;;;;;;;;;;;;;21.72;37.71;99668.13;5159282;22;19972;-92
2022/07/13 06:38:49;;;;;;;;;;;;;;;21.74;38.49;99674.06;4993584;28;19933;-92
2022/07/13 06:41:15;;;;;;;;;;;;;;;21.74;37.34;99671.31;4980456;28;19940;-91
2022/07/13 06:43:41;;;;;;;;;;;;;;;21.93;37.69;99673.56;4978316;28;20000;-90
2022/07/13 06:46:09;;;;;;;;;;;;;;;22.13;37.42;99671.94;5003621;28;19913;-92
2022/07/13 06:48:35;;;;;;;;;;;;;;;22.16;37.16;99671.22;4988613;28;19944;-92
2022/07/13 06:51:09;;;;;;;;;;;;;;;22.27;37.01;99669.72;4986854;28;19921;-92
2022/07/13 06:53:37;;;;;;;;;;;;;;;22.38;35.97;99676.34;4976226;28;20415;-93
2022/07/13 06:56:04;;;;;;;;;;;;;;;22.42;35.54;99665.50;5000603;28;19964;-92
2022/07/13 06:58:29;;;;;;;;;;;;;;;22.47;35.63;99670.75;5000526;28;19920;-90
2022/07/13 07:00:58;;;;;;;;;;;;;;;22.45;35.66;99670.28;4989920;28;19914;-93
2022/07/13 07:03:24;;;;;;;;;;;;;;;22.53;36.18;99668.59;4979501;28;20004;-93
2022/07/13 07:05:59;;;;;;;;;;;;;;;22.70;36.50;99673.06;4968019;28;20388;-95
2022/07/13 07:08:27;;;;;;;;;;;;;;;22.71;34.94;99663.69;4980452;28;20372;-91
2022/07/13 07:10:52;;;;;;;;;;;;;;;22.78;35.46;99664.72;4982473;28;19917;-90
2022/07/13 07:13:21;;;;;;;;;;;;;;;22.89;35.01;99664.25;5005057;28;19921;-95
2022/07/13 07:15:52;;;;;;;;;;;;;;;22.92;34.50;99666.31;5000083;28;19913;-93
2022/07/13 07:18:24;;;;;;;;;;;;;;;;;;4999518;28;19920;-95
2022/07/13 07:20:50;;;;;;;;;;;;;;;23.07;34.03;99668.38;5001966;28;20367;-95
2022/07/13 07:23:16;;;;;;;;;;;;;;;23.10;35.20;99666.94;5017116;28;20000;-93
2022/07/13 07:25:43;;;;;;;;;;;;;;;23.24;34.91;99672.81;5001706;28;19914;-94
2022/07/13 07:28:12;;;;;;;;;;;;;;;23.32;33.64;99671.91;5000656;28;20011;-91
2022/07/13 07:30:38;;;;;;;;;;;;;;;23.38;34.91;99676.00;5004669;28;19921;-93
2022/07/13 07:35:57;;;;;;;;;;;;;;;23.51;33.35;99675.97;5030293;28;19925;-95
2022/07/13 07:38:24;;;;;;;;;;;;;;;23.60;32.67;99674.69;5006981;28;19920;-93
2022/07/13 07:40:51;;;;;;;;;;;;;;;23.57;33.79;99666.34;5026284;28;19923;-95
2022/07/13 07:43:16;;;;;;;;;;;;;;;23.60;31.39;99676.66;5008098;28;19913;-95
2022/07/13 07:45:46;;;;;;;;;;;;;;;23.53;31.21;99679.19;5003685;28;19970;-93
2022/07/13 07:48:12;;;;;;;;;;;;;;;23.63;31.54;99689.69;5022769;28;20367;-94
2022/07/13 07:50:37;;;;;;;;;;;;;;;23.64;30.73;99679.47;5003261;28;19927;-94
2022/07/13 07:53:06;;;;;;;;;;;;;;;23.76;31.22;99683.03;4982287;28;19917;-94
2022/07/13 07:58:20;;;;;;;;;;;;;;;23.85;29.37;99674.63;5017827;28;19921;-95
2022/07/13 08:00:46;;;;;;;;;;;;;;;23.92;30.07;99680.31;4970677;28;20370;-95
2022/07/13 08:03:23;;;;;;;;;;;;;;;23.99;30.67;99674.25;4967548;28;19914;-95
2022/07/13 08:05:52;;;;;;;;;;;;;;;24.05;31.42;99661.84;4986909;28;19914;-96
2022/07/13 08:08:20;;;;;;;;;;;;;;;24.07;30.74;99670.50;4997191;28;19918;-92
2022/07/13 08:10:49;;;;;;;;;;;;;;;24.16;30.92;99671.16;4993024;28;19949;-92
2022/07/13 08:13:14;;;;;;;;;;;;;;;24.23;30.30;99664.25;4994319;28;19914;-92
2022/07/13 08:15:50;;;;;;;;;;;;;;;24.31;30.66;99666.03;5000129;28;19917;-94
2022/07/13 08:18:15;;;;;;;;;;;;;;;24.23;30.66;99670.53;4997921;28;19980;-91
2022/07/13 08:20:41;;;;;;;;;;;;;;;24.28;30.40;99662.03;4979238;28;19933;-93
2022/07/13 08:25:54;;;;;;;;;;;;;;;24.34;29.76;99662.56;4996140;28;19941;-95
2022/07/13 08:28:28;;;;;;;;;;;;;;;24.45;30.42;99665.59;4994037;28;19918;-93
2022/07/13 08:30:59;;;;;;;;;;;;;;;24.37;29.42;99668.16;4996380;28;19985;-94
2022/07/13 08:39:12;;;;;;;;;;;;;;;24.35;29.10;99662.22;4961756;28;20017;-93
2022/07/13 08:41:40;;;;;;;;;;;;;;;24.37;28.94;99659.13;4958505;28;19949;-91
2022/07/13 08:44:06;;;;;;;;;;;;;;;24.46;29.42;99658.94;4948816;29;19954;-94
2022/07/13 08:46:31;;;;;;;;;;;;;;;24.44;28.65;99651.03;4954401;29;19937;-92
2022/07/13 08:49:08;;;;;;;;;;;;;;;24.51;29.47;99656.75;4956924;28;19969;-94
2022/07/13 08:51:34;;;;;;;;;;;;;;;24.61;29.20;99649.91;4934317;29;19925;-91
2022/07/13 08:54:00;;;;;;;;;;;;;;;24.81;29.10;99648.81;4945594;28;19914;-91
2022/07/13 08:56:26;;;;;;;;;;;;;;;24.96;28.61;99652.69;4957753;28;20304;-91
2022/07/13 08:58:54;;;;;;;;;;;;;;;24.86;29.10;99656.03;4954759;28;19921;-96
2022/07/13 09:01:22;;;;;;;;;;;;;;;24.75;27.90;99660.47;4984079;28;19957;-94
2022/07/13 09:03:51;;;;;;;;;;;;;;;24.78;27.74;99649.53;4986179;28;19918;-95
2022/07/13 09:06:36;;;;;;;;;;;;;;;24.84;29.26;99644.56;5005343;28;19932;-93
2022/07/13 09:09:02;;;;;;;;;;;;;;;25.03;27.65;99649.31;5005920;28;19921;-93
2022/07/13 09:11:27;;;;;;;;;;;;;;;25.07;27.62;99639.19;5019686;28;20008;-95
2022/07/13 09:13:59;;;;;;;;;;;;;;;25.13;27.60;99637.75;4987674;28;19913;-94
2022/07/13 09:16:37;;;;;;;;;;;;;;;25.23;28.17;99635.59;5000983;28;19914;-95
2022/07/13 09:19:02;;;;;;;;;;;;;;;25.25;27.49;99652.56;4966022;28;19982;-95
2022/07/13 09:21:30;;;;;;;;;;;;;;;25.10;27.17;99643.97;4986734;28;19949;-95
2022/07/13 09:27:03;;;;;;;;;;;;;;;25.47;25.51;99645.56;4980293;28;19919;-96
2022/07/13 09:29:39;;;;;;;;;;;;;;;25.51;26.36;99632.66;4967904;28;19933;-95
2022/07/13 09:32:07;;;;;;;;;;;;;;;25.52;25.97;99625.97;4964048;28;19936;-91
2022/07/13 09:34:44;;;;;;;;;;;;;;;25.67;25.43;99630.63;4985646;28;19921;-95
2022/07/13 09:40:01;;;;;;;;;;;;;;;25.67;25.24;99644.41;4978516;28;19913;-94
2022/07/13 09:46:08;;;;;;;;;;;;;;;25.86;24.58;99635.31;4983110;28;19917;-96
2022/07/13 09:48:24;;;;;;;;;;;;;;;26.02;24.49;99635.22;4986971;28;20021;-96
2022/07/13 09:50:53;;;;;;;;;;;;;;;26.14;24.71;99635.06;4965948;28;19941;-95
2022/07/13 09:53:30;;;;;;;;;;;;;;;26.16;25.82;99634.69;4964516;28;19922;-95
2022/07/13 09:56:00;;;;;;;;;;;;;;;26.27;24.36;99637.66;4980770;28;19917;-94
2022/07/13 09:58:28;;;;;;;;;;;;;;;26.19;23.75;99628.47;4965389;28;19956;-93
2022/07/13 10:00:56;;;;;;;;;;;;;;;26.25;23.99;99629.75;4979840;28;20406;-93
2022/07/13 10:03:22;;;;;;;;;;;;;;;26.27;24.44;99632.13;4991885;28;20213;-95
2022/07/13 10:05:57;;;;;;;;;;;;;;;26.22;24.68;99638.75;4966313;28;19921;-96
2022/07/13 10:08:22;;;;;;;;;;;;;;;26.29;25.47;99618.75;4981041;28;19918;-94
2022/07/13 10:10:52;;;;;;;;;;;;;;;26.29;23.33;99614.00;4980799;28;19933;-95
2022/07/13 10:13:18;;;;;;;;;;;;;;;26.20;23.89;99619.78;4966639;28;19914;-95
2022/07/13 10:15:44;;;;;;;;;;;;;;;26.20;23.99;99616.25;4965723;28;20310;-94
2022/07/13 10:18:10;;;;;;;;;;;;;;;26.22;23.49;99616.66;4980131;28;19992;-94
2022/07/13 10:20:45;;;;;;;;;;;;;;;26.32;23.95;99599.50;4967937;28;19918;-95
2022/07/13 10:23:11;;;;;;;;;;;;;;;26.42;23.81;99607.16;4984092;28;20008;-95
2022/07/13 10:25:40;;;;;;;;;;;;;;;26.32;23.36;99610.53;4981025;28;19913;-94
2022/07/13 10:28:12;;;;;;;;;;;;;;;26.33;23.32;99606.59;4966210;28;20380;-96
2022/07/13 10:30:40;;;;;;;;;;;;;;;26.47;22.62;99597.75;4963904;28;19918;-90
2022/07/13 10:33:41;;;;;;;;;;;;;;;26.45;22.25;99593.78;4963571;28;19914;-93
2022/07/13 10:36:06;;;;;;;;;;;;;;;26.38;23.14;99592.50;4973728;28;19922;-92
2022/07/13 10:38:32;;;;;;;;;;;;;;;26.49;22.57;99589.91;4976565;28;20004;-90
2022/07/13 10:41:16;;;;;;;;;;;;;;;26.45;22.49;99597.31;4976933;28;19914;-90
2022/07/13 10:43:41;;;;;;;;;;;;;;;26.33;22.88;99583.72;4976392;28;20292;-93
2022/07/13 10:46:25;;;;;;;;;;;;;;;26.46;22.68;99581.53;4976742;28;19921;-95
2022/07/13 10:48:51;;;;;;;;;;;;;;;26.56;22.59;99576.22;4963284;28;19918;-91
2022/07/13 10:51:17;;;;;;;;;;;;;;;26.50;21.97;99574.13;4979201;28;20297;-93
2022/07/13 10:53:50;;;;;;;;;;;;;;;26.65;21.81;99578.72;4962356;28;19921;-96
2022/07/13 10:56:16;;;;;;;;;;;;;;;26.72;21.46;99570.53;4995282;28;19936;-93
2022/07/13 10:58:43;;;;;;;;;;;;;;;26.85;21.06;99573.88;4975059;28;19914;-92
2022/07/13 11:01:27;;;;;;;;;;;;;;;26.98;20.75;99582.75;4975526;28;19917;-93
2022/07/13 11:03:55;;;;;;;;;;;;;;;26.88;20.88;99570.38;4977552;28;20387;-92
2022/07/13 11:06:21;;;;;;;;;;;;;;;26.88;20.68;99558.53;4994196;28;19949;-94
2022/07/13 11:08:46;;;;;;;;;;;;;;;27.03;21.22;99563.06;4978261;28;19957;-95
2022/07/13 11:11:15;;;;;;;;;;;;;;;27.10;21.52;99560.41;4978399;28;19922;-91
2022/07/13 11:13:45;;;;;;;;;;;;;;;27.20;21.11;99576.31;4977500;28;19921;-92
2022/07/13 11:16:12;;;;;;;;;;;;;;;27.12;21.70;99558.06;4994431;28;19917;-93
2022/07/13 11:18:41;;;;;;;;;;;;;;;26.96;20.96;99568.50;4977831;28;19913;-95
2022/07/13 11:21:18;;;;;;;;;;;;;;;27.03;21.60;99557.53;4995210;28;19914;-95
2022/07/13 11:26:37;;;;;;;;;;;;;;;27.05;21.49;99551.66;4995795;28;19964;-92
2022/07/13 11:29:16;;;;;;;;;;;;;;;27.06;21.66;99554.03;4977099;28;19914;-89
2022/07/13 11:31:45;;;;;;;;;;;;;;;27.12;22.00;99558.06;4979349;28;19972;-90
2022/07/13 11:34:11;;;;;;;;;;;;;;;27.02;22.30;99534.63;4975233;28;20295;-90
2022/07/13 11:36:37;;;;;;;;;;;;;;;26.99;22.05;99546.44;4989923;28;19922;-90
2022/07/13 11:39:20;;;;;;;;;;;;;;;26.99;22.63;99540.91;4978698;28;20411;-91
2022/07/13 11:41:46;;;;;;;;;;;;;;;26.85;22.39;99545.44;4962514;28;20395;-90
2022/07/13 11:44:11;;;;;;;;;;;;;;;26.93;22.68;99544.38;4977543;28;19914;-90
2022/07/13 11:46:37;;;;;;;;;;;;;;;27.00;22.24;99541.72;4961043;28;19918;-91
2022/07/13 11:49:05;;;;;;;;;;;;;;;27.03;22.61;99535.44;4963973;28;19914;-91
2022/07/13 11:51:32;;;;;;;;;;;;;;;27.11;22.37;99539.09;4971165;28;19922;-94
2022/07/13 11:54:08;;;;;;;;;;;;;;;27.12;22.52;99551.72;4980835;28;19914;-92
2022/07/13 11:56:33;;;;;;;;;;;;;;;26.95;22.41;99533.75;4961382;28;19914;-92
2022/07/13 11:58:58;;;;;;;;;;;;;;;27.02;22.88;99531.88;4961368;28;20113;-90
2022/07/13 12:01:25;;;;;;;;;;;;;;;27.08;22.94;99535.13;4961429;28;19982;-90
2022/07/13 12:03:51;;;;;;;;;;;;;;;26.91;22.76;99539.22;4961152;28;20284;-91
2022/07/13 12:06:16;;;;;;;;;;;;;;;27.01;22.89;99521.97;4962142;28;19920;-93
2022/07/13 12:08:42;;;;;;;;;;;;;;;27.07;22.16;99522.44;4959939;28;19977;-90
2022/07/13 12:11:08;;;;;;;;;;;;;;;27.10;21.42;99535.53;4959839;28;19918;-90
2022/07/13 12:13:34;;;;;;;;;;;;;;;26.90;21.44;99529.34;4961122;28;19914;-90
2022/07/13 12:16:01;;;;;;;;;;;;;;;26.94;22.02;99519.13;4976974;28;19980;-89
2022/07/13 12:18:26;;;;;;;;;;;;;;;26.92;21.86;99512.41;4978325;28;19914;-92
2022/07/13 12:20:52;;;;;;;;;;;;;;;27.10;23.09;99510.66;4962556;28;19938;-90
2022/07/13 12:23:24;;;;;;;;;;;;;;;27.11;22.35;99526.06;4960697;28;19913;-91
2022/07/13 12:26:05;;;;;;;;;;;;;;;27.32;22.22;99519.22;4976146;28;19917;-91
2022/07/13 12:28:31;;;;;;;;;;;;;;;27.56;22.01;99517.91;4957490;28;20380;-91
2022/07/13 12:31:18;;;;;;;;;;;;;;;27.65;20.28;99517.59;4975880;28;19922;-90
2022/07/13 12:33:44;;;;;;;;;;;;;;;27.55;20.89;99516.28;4981180;28;19914;-90
2022/07/13 12:36:10;;;;;;;;;;;;;;;27.69;20.34;99512.88;4964767;28;19971;-91
2022/07/13 12:38:36;;;;;;;;;;;;;;;27.85;19.86;99521.72;4964142;28;20488;-88
2022/07/13 12:41:03;;;;;;;;;;;;;;;27.89;20.58;99508.75;4980462;28;19977;-90
2022/07/13 12:43:30;;;;;;;;;;;;;;;27.97;20.50;99506.81;4967161;28;19932;-90
2022/07/13 12:45:57;;;;;;;;;;;;;;;27.94;20.33;99504.84;4970319;28;20000;-89
2022/07/13 12:48:26;;;;;;;;;;;;;;;28.08;20.52;99504.94;4997965;28;19918;-90
2022/07/13 12:51:06;;;;;;;;;;;;;;;28.27;20.68;99486.50;4980932;28;20311;-89
2022/07/13 12:53:48;;;;;;;;;;;;;;;28.42;19.75;99496.47;4960174;28;20394;-90
2022/07/13 12:56:16;;;;;;;;;;;;;;;28.49;19.68;99491.00;4962197;28;19914;-92
2022/07/13 12:58:50;;;;;;;;;;;;;;;28.70;20.10;99495.88;4963534;28;20017;-89
2022/07/13 13:01:26;;;;;;;;;;;;;;;28.72;19.81;99487.16;5003531;28;19913;-93
2022/07/13 13:03:51;;;;;;;;;;;;;;;28.84;20.21;99486.03;4965372;28;19960;-91
2022/07/13 13:06:17;;;;;;;;;;;;;;;28.80;19.42;99494.31;4964119;28;19914;-92
2022/07/13 13:08:42;;;;;;;;;;;;;;;28.99;19.21;99485.72;4948373;28;19973;-91
2022/07/13 13:11:08;;;;;;;;;;;;;;;28.97;19.31;99488.06;4951861;28;19918;-89
2022/07/13 13:13:36;;;;;;;;;;;;;;;28.89;19.09;99480.09;4963853;28;20441;-92
2022/07/13 13:16:02;;;;;;;;;;;;;;;28.85;18.72;99485.66;4965833;28;19920;-93
2022/07/13 13:18:30;;;;;;;;;;;;;;;28.99;18.01;99482.94;4966370;28;19953;-94
2022/07/13 13:20:58;;;;;;;;;;;;;;;29.24;17.34;99478.66;4967225;28;19914;-96
2022/07/13 13:23:33;;;;;;;;;;;;;;;29.29;16.82;99483.84;5001207;28;20408;-96
2022/07/13 13:25:59;;;;;;;;;;;;;;;29.13;17.12;99465.56;4968815;28;20003;-94
2022/07/13 13:31:34;;;;;;;;;;;;;;;29.35;17.38;99469.19;4925641;29;20469;-93
2022/07/13 13:34:02;;;;;;;;;;;;;;;29.64;17.21;99468.44;4905026;29;19925;-94
2022/07/13 13:36:28;;;;;;;;;;;;;;;29.98;16.50;99486.31;4896461;29;19940;-96
2022/07/13 13:38:56;;;;;;;;;;;;;;;30.06;16.19;99478.00;4900948;29;19945;-94
2022/07/13 13:41:21;;;;;;;;;;;;;;;29.68;16.90;99474.78;4892519;29;19919;-95
2022/07/13 13:43:52;;;;;;;;;;;;;;;30.10;16.49;99474.00;4903856;29;20002;-93